Time;durP1;ratioP1;P1;durP2;ratioP2;P2;SDS_P1;SDS_P2;PMS_P1;PMS_P2;Temp;Humidity;BMP_temperature;BMP_pressure;BME280_temperature;BME280_humidity;BME280_pressure;Samples;Min_cycle;Max_cycle;Signal;HPM_P1;HPM_P2
2023/07/06 00:00:26;;;;;;;2.35;1.75;;;19.00;56.50;;;;;;899088;154;27501;-76
2023/07/06 00:02:53;;;;;;;2.70;2.10;;;19.00;56.50;;;;;;897545;155;27359;-76
2023/07/06 00:05:22;;;;;;;2.45;2.15;;;19.00;56.50;;;;;;900936;155;27365;-76
2023/07/06 00:07:46;;;;;;;1.67;1.57;;;19.00;56.60;;;;;;899158;157;27467;-75
2023/07/06 00:10:13;;;;;;;2.27;2.08;;;19.00;56.50;;;;;;899976;155;27498;-76
2023/07/06 00:12:39;;;;;;;3.20;2.00;;;19.00;56.50;;;;;;896446;155;27390;-76
2023/07/06 00:15:06;;;;;;;5.90;1.75;;;18.90;56.50;;;;;;899431;155;27336;-75
2023/07/06 00:17:32;;;;;;;1.77;1.65;;;18.90;56.60;;;;;;897122;155;27419;-76
2023/07/06 00:19:59;;;;;;;2.83;2.17;;;18.90;56.70;;;;;;898754;155;27416;-76
2023/07/06 00:22:25;;;;;;;1.95;1.67;;;18.90;56.70;;;;;;900642;155;27505;-76
2023/07/06 00:24:52;;;;;;;2.12;1.92;;;18.80;56.90;;;;;;897879;155;27426;-75
2023/07/06 00:27:20;;;;;;;4.40;1.80;;;18.80;57.00;;;;;;899025;155;27401;-75
2023/07/06 00:30:14;;;;;;;1.72;1.60;;;18.80;57.10;;;;;;899488;155;27402;-76
2023/07/06 00:32:28;;;;;;;1.87;1.75;;;18.70;57.20;;;;;;897966;155;27463;-75
2023/07/06 00:34:54;;;;;;;2.20;2.00;;;18.70;57.30;;;;;;898134;155;27466;-76
2023/07/06 00:37:21;;;;;;;2.35;2.15;;;18.70;57.30;;;;;;900010;155;27444;-76
2023/07/06 00:39:47;;;;;;;2.30;1.98;;;18.60;57.50;;;;;;901196;157;27469;-76
2023/07/06 00:42:13;;;;;;;2.12;1.87;;;18.60;57.50;;;;;;901602;155;27413;-75
2023/07/06 00:44:57;;;;;;;3.70;2.25;;;18.50;57.70;;;;;;899039;155;27379;-76
2023/07/06 00:47:30;;;;;;;2.47;2.22;;;18.50;57.70;;;;;;899623;155;27458;-76
2023/07/06 00:49:57;;;;;;;1.98;1.80;;;18.40;57.70;;;;;;897280;157;27380;-76
2023/07/06 00:52:23;;;;;;;2.40;2.20;;;18.40;57.80;;;;;;899600;155;27456;-76
2023/07/06 00:54:50;;;;;;;4.03;1.70;;;18.30;57.90;;;;;;900111;155;27398;-75
2023/07/06 00:57:16;;;;;;;1.92;1.77;;;18.30;58.00;;;;;;897808;155;27396;-76
2023/07/06 00:59:44;;;;;;;2.55;2.10;;;18.20;58.10;;;;;;897077;155;27394;-75
2023/07/06 01:02:10;;;;;;;2.45;2.00;;;18.20;58.20;;;;;;898855;155;27388;-76
2023/07/06 01:04:36;;;;;;;2.42;1.95;;;18.10;58.30;;;;;;897816;155;27454;-75
2023/07/06 01:07:04;;;;;;;2.00;1.80;;;18.10;58.50;;;;;;899724;155;27419;-76
2023/07/06 01:09:29;;;;;;;2.45;2.25;;;18.10;58.50;;;;;;898666;155;27362;-75
2023/07/06 01:11:56;;;;;;;2.35;2.15;;;18.00;58.60;;;;;;899997;155;27537;-76
2023/07/06 01:14:24;;;;;;;2.15;1.95;;;18.00;58.60;;;;;;899245;155;27881;-75
2023/07/06 01:16:59;;;;;;;2.22;2.05;;;17.90;58.70;;;;;;897611;155;27508;-76
2023/07/06 01:19:43;;;;;;;2.40;2.20;;;17.80;58.80;;;;;;899279;155;27307;-76
2023/07/06 01:22:24;;;;;;;6.03;2.25;;;17.70;58.90;;;;;;897963;155;27390;-75
2023/07/06 01:25:12;;;;;;;2.42;2.02;;;17.60;58.90;;;;;;899414;155;27460;-75
2023/07/06 01:28:06;;;;;;;2.70;2.50;;;17.50;59.00;;;;;;899764;155;27479;-76
2023/07/06 01:30:47;;;;;;;3.10;2.47;;;17.40;59.10;;;;;;899354;155;27401;-76
2023/07/06 01:33:20;;;;;;;2.70;2.50;;;17.30;59.20;;;;;;892284;155;27595;-75
2023/07/06 01:35:56;;;;;;;3.00;2.37;;;17.20;59.50;;;;;;891593;157;27344;-75
2023/07/06 01:38:22;;;;;;;2.75;2.05;;;17.10;59.80;;;;;;873778;161;27534;-75
2023/07/06 01:40:48;;;;;;;2.95;2.30;;;17.00;59.90;;;;;;873039;160;27384;-75
2023/07/06 01:43:14;;;;;;;2.72;2.52;;;17.00;60.00;;;;;;879396;158;27462;-75
2023/07/06 01:45:41;;;;;;;4.62;2.65;;;16.90;60.20;;;;;;881194;158;27391;-75
2023/07/06 01:48:10;;;;;;;2.75;2.30;;;16.80;60.40;;;;;;866864;161;27938;-76
2023/07/06 01:50:53;;;;;;;3.00;2.70;;;16.70;60.60;;;;;;900502;155;27345;-75
2023/07/06 01:53:31;;;;;;;3.00;2.70;;;16.70;60.80;;;;;;899027;155;27961;-75
2023/07/06 01:56:04;;;;;;;2.47;2.27;;;16.60;60.80;;;;;;897695;155;27395;-75
2023/07/06 01:58:55;;;;;;;2.60;2.40;;;16.50;61.00;;;;;;899340;155;27445;-75
2023/07/06 02:01:21;;;;;;;2.57;2.37;;;16.50;61.30;;;;;;887421;155;27431;-76
2023/07/06 02:03:50;;;;;;;2.47;2.25;;;16.40;61.30;;;;;;898406;155;27412;-76
2023/07/06 02:06:17;;;;;;;3.37;3.03;;;16.40;61.70;;;;;;896999;155;27373;-76
2023/07/06 02:08:43;;;;;;;3.35;2.52;;;16.40;62.10;;;;;;897051;157;27321;-76
2023/07/06 02:11:10;;;;;;;3.05;2.75;;;16.40;62.10;;;;;;899052;155;27438;-76
2023/07/06 02:13:37;;;;;;;3.15;2.52;;;16.40;62.30;;;;;;898486;154;27884;-76
2023/07/06 02:16:07;;;;;;;2.72;2.52;;;16.30;62.40;;;;;;898752;155;27494;-76
2023/07/06 02:18:33;;;;;;;3.73;2.13;;;16.40;62.40;;;;;;900163;156;27386;-76
2023/07/06 02:21:01;;;;;;;3.50;2.37;;;16.40;62.50;;;;;;897614;158;27386;-76
2023/07/06 02:23:27;;;;;;;2.53;2.33;;;16.40;62.60;;;;;;898939;155;27512;-75
2023/07/06 02:25:56;;;;;;;2.42;2.22;;;16.40;62.70;;;;;;898105;155;27406;-75
2023/07/06 02:28:23;;;;;;;2.75;2.50;;;16.40;62.70;;;;;;897067;155;27493;-75
2023/07/06 02:30:49;;;;;;;3.70;2.50;;;16.30;62.70;;;;;;898417;155;27403;-75
2023/07/06 02:33:19;;;;;;;2.92;2.72;;;16.30;62.80;;;;;;898194;155;27536;-75
2023/07/06 02:35:45;;;;;;;2.72;2.20;;;16.30;62.90;;;;;;897863;155;27420;-75
2023/07/06 02:38:09;;;;;;;4.57;3.00;;;16.30;63.00;;;;;;898867;155;27377;-75
2023/07/06 02:40:36;;;;;;;3.60;2.73;;;16.30;63.20;;;;;;898677;154;27498;-75
2023/07/06 02:43:02;;;;;;;3.25;2.30;;;16.30;63.30;;;;;;898821;155;27500;-75
2023/07/06 02:45:29;;;;;;;2.62;2.35;;;16.30;63.40;;;;;;898233;155;27548;-75
2023/07/06 02:47:58;;;;;;;2.40;2.20;;;16.30;63.50;;;;;;899120;157;27296;-75
2023/07/06 02:50:23;;;;;;;2.65;2.40;;;16.30;63.70;;;;;;899837;155;27468;-75
2023/07/06 02:52:49;;;;;;;3.23;2.80;;;16.30;63.70;;;;;;900416;155;27907;-75
2023/07/06 02:55:16;;;;;;;3.62;2.70;;;16.30;63.90;;;;;;898564;155;27415;-75
2023/07/06 02:57:42;;;;;;;2.67;2.03;;;16.30;63.90;;;;;;900069;155;27495;-74
2023/07/06 03:00:14;;;;;;;4.10;2.53;;;16.30;64.00;;;;;;899025;155;27380;-75
2023/07/06 03:02:38;;;;;;;3.12;2.52;;;16.30;63.90;;;;;;897030;155;27407;-75
2023/07/06 03:05:04;;;;;;;2.63;2.40;;;16.30;63.90;;;;;;899064;155;27510;-74
2023/07/06 03:07:34;;;;;;;3.37;2.40;;;16.30;64.00;;;;;;899048;155;27955;-74
2023/07/06 03:09:57;;;;;;;3.17;2.70;;;16.30;64.00;;;;;;898713;157;27377;-74
2023/07/06 03:12:24;;;;;;;2.70;2.50;;;16.30;64.00;;;;;;898972;155;27490;-74
2023/07/06 03:14:51;;;;;;;4.27;2.80;;;16.30;64.00;;;;;;899160;155;27776;-74
2023/07/06 03:17:17;;;;;;;3.03;2.63;;;16.20;64.00;;;;;;898681;155;27416;-74
2023/07/06 03:19:44;;;;;;;3.13;2.83;;;16.20;64.00;;;;;;900119;155;27443;-74
2023/07/06 03:22:10;;;;;;;5.20;2.70;;;16.10;64.10;;;;;;899752;155;27380;-74
2023/07/06 03:24:37;;;;;;;2.63;2.43;;;16.00;64.20;;;;;;898827;155;27400;-74
2023/07/06 03:27:03;;;;;;;2.90;2.22;;;16.00;64.30;;;;;;897569;155;27442;-74
2023/07/06 03:29:30;;;;;;;3.23;2.43;;;15.90;64.30;;;;;;900893;155;27915;-74
2023/07/06 03:31:57;;;;;;;3.43;2.33;;;15.90;64.50;;;;;;898818;155;27416;-74
2023/07/06 03:34:23;;;;;;;3.77;2.33;;;15.80;64.60;;;;;;897397;155;27997;-74
2023/07/06 03:36:50;;;;;;;2.63;2.30;;;15.70;64.80;;;;;;900003;155;27378;-74
2023/07/06 03:39:16;;;;;;;2.77;2.47;;;15.70;65.00;;;;;;899993;155;27397;-74
2023/07/06 03:41:43;;;;;;;2.90;2.50;;;15.60;65.20;;;;;;899097;155;27550;-74
2023/07/06 03:44:10;;;;;;;3.57;2.90;;;15.60;65.40;;;;;;897988;155;27403;-74
2023/07/06 03:46:36;;;;;;;2.67;2.47;;;15.50;65.60;;;;;;900446;155;27472;-74
2023/07/06 03:49:08;;;;;;;2.60;2.40;;;15.50;65.90;;;;;;898032;155;27513;-74
2023/07/06 03:51:32;;;;;;;3.80;2.90;;;15.40;66.00;;;;;;899865;155;28571;-74
2023/07/06 03:53:59;;;;;;;4.50;2.53;;;15.40;66.20;;;;;;899835;155;27501;-75
2023/07/06 03:56:28;;;;;;;2.60;2.40;;;15.30;66.40;;;;;;898130;155;27494;-74
2023/07/06 03:58:56;;;;;;;3.10;2.70;;;15.30;66.50;;;;;;899524;155;27526;-74
2023/07/06 04:01:22;;;;;;;3.40;2.37;;;15.30;66.70;;;;;;897425;155;27525;-74
2023/07/06 04:03:48;;;;;;;3.10;2.60;;;15.40;66.80;;;;;;896682;155;27386;-74
2023/07/06 04:06:40;;;;;;;4.10;3.03;;;15.40;66.90;;;;;;898640;155;27437;-74
2023/07/06 04:09:01;;;;;;;3.20;2.90;;;15.40;67.00;;;;;;867664;162;27508;-74
2023/07/06 04:11:27;;;;;;;3.27;2.33;;;15.30;67.10;;;;;;869781;161;27523;-74
2023/07/06 04:13:57;;;;;;;2.77;2.47;;;15.40;67.10;;;;;;869700;160;27372;-74
2023/07/06 04:16:21;;;;;;;4.70;2.70;;;15.40;66.50;;;;;;868290;163;27471;-74
2023/07/06 04:18:47;;;;;;;2.90;2.70;;;15.40;67.40;;;;;;868784;161;27450;-74
2023/07/06 04:21:14;;;;;;;3.17;2.83;;;15.40;67.50;;;;;;869170;163;27555;-74
2023/07/06 04:23:40;;;;;;;4.30;2.70;;;15.50;67.60;;;;;;872066;160;27414;-74
2023/07/06 04:26:07;;;;;;;3.43;3.10;;;15.50;67.60;;;;;;869239;160;27475;-74
2023/07/06 04:28:33;;;;;;;2.90;2.67;;;15.50;67.60;;;;;;869599;162;27432;-74
2023/07/06 04:31:00;;;;;;;4.13;2.47;;;15.60;67.70;;;;;;869427;160;27476;-74
2023/07/06 04:33:27;;;;;;;3.23;2.87;;;15.60;67.80;;;;;;870085;160;27437;-74
2023/07/06 04:35:53;;;;;;;4.07;2.67;;;15.70;67.80;;;;;;872218;162;27522;-74
2023/07/06 04:38:20;;;;;;;2.95;2.50;;;15.80;67.50;;;;;;872264;161;27538;-74
2023/07/06 04:40:46;;;;;;;2.58;2.37;;;15.80;67.90;;;;;;872018;161;27450;-74
2023/07/06 04:43:13;;;;;;;3.10;2.60;;;15.90;67.10;;;;;;871268;162;27522;-74
2023/07/06 04:45:40;;;;;;;4.30;2.97;;;16.00;68.00;;;;;;871774;162;27424;-74
2023/07/06 04:48:06;;;;;;;3.87;2.67;;;16.00;67.90;;;;;;871130;163;27475;-74
2023/07/06 04:50:33;;;;;;;2.85;2.60;;;16.10;67.90;;;;;;871570;161;28178;-74
2023/07/06 04:53:00;;;;;;;4.30;3.20;;;16.20;68.00;;;;;;872235;163;27510;-74
2023/07/06 04:55:26;;;;;;;3.37;2.60;;;16.30;68.00;;;;;;871908;162;27427;-74
2023/07/06 04:57:54;;;;;;;3.37;3.00;;;16.40;68.20;;;;;;871651;162;27435;-74
2023/07/06 05:00:24;;;;;;;2.70;2.50;;;16.50;68.30;;;;;;869131;163;27458;-74
2023/07/06 05:02:46;;;;;;;3.98;2.77;;;16.70;68.80;;;;;;870837;162;27416;-74
2023/07/06 05:05:12;;;;;;;2.90;2.70;;;17.00;69.50;;;;;;871218;163;27501;-74
2023/07/06 05:07:39;;;;;;;2.92;2.62;;;17.30;70.20;;;;;;871636;162;27913;-74
2023/07/06 05:10:05;;;;;;;2.45;2.25;;;17.80;70.80;;;;;;873447;162;27451;-74
2023/07/06 05:12:32;;;;;;;2.95;2.47;;;18.40;71.00;;;;;;873506;161;27466;-74
2023/07/06 05:14:59;;;;;;;5.17;2.60;;;19.00;70.90;;;;;;873391;163;27420;-74
2023/07/06 05:17:25;;;;;;;2.60;2.35;;;19.80;70.60;;;;;;872866;161;27414;-74
2023/07/06 05:19:52;;;;;;;4.30;2.27;;;20.60;69.60;;;;;;872715;161;27449;-74
2023/07/06 05:22:18;;;;;;;3.05;2.33;;;21.40;68.40;;;;;;873500;161;27551;-74
2023/07/06 05:24:45;;;;;;;3.98;2.75;;;22.20;67.10;;;;;;873241;161;27429;-74
2023/07/06 05:27:12;;;;;;;2.50;2.30;;;23.00;65.70;;;;;;873227;163;27464;-74
2023/07/06 05:29:38;;;;;;;2.08;1.98;;;23.80;64.40;;;;;;873754;163;27413;-74
2023/07/06 05:32:05;;;;;;;2.00;1.90;;;24.50;63.00;;;;;;873591;163;27440;-74
2023/07/06 05:34:32;;;;;;;2.60;2.08;;;25.20;61.60;;;;;;873246;161;27460;-75
2023/07/06 05:36:58;;;;;;;2.30;2.10;;;25.90;60.20;;;;;;873200;163;27533;-74
2023/07/06 05:39:25;;;;;;;2.42;2.22;;;26.60;59.80;;;;;;873696;163;27413;-75
2023/07/06 05:41:51;;;;;;;1.87;1.77;;;27.20;58.00;;;;;;873411;161;27530;-75
2023/07/06 05:44:18;;;;;;;2.25;2.05;;;27.80;57.10;;;;;;873113;161;27441;-75
2023/07/06 05:46:44;;;;;;;2.35;2.15;;;28.40;56.30;;;;;;872868;163;27494;-75
2023/07/06 05:49:11;;;;;;;2.60;2.40;;;28.90;55.30;;;;;;873287;161;27329;-75
2023/07/06 05:51:38;;;;;;;2.35;1.85;;;29.40;54.50;;;;;;872951;161;27429;-75
2023/07/06 05:54:04;;;;;;;2.60;2.05;;;29.90;53.70;;;;;;873599;161;27467;-75
2023/07/06 05:56:31;;;;;;;2.62;2.08;;;30.40;53.10;;;;;;872910;163;27548;-75
2023/07/06 05:58:59;;;;;;;2.20;2.00;;;30.90;52.40;;;;;;873292;161;27420;-75
2023/07/06 06:01:24;;;;;;;2.35;2.00;;;31.40;51.80;;;;;;873250;163;27420;-75
2023/07/06 06:03:51;;;;;;;1.77;1.65;;;31.90;51.00;;;;;;873698;161;27451;-75
2023/07/06 06:06:17;;;;;;;1.85;1.75;;;32.40;50.50;;;;;;873021;163;27442;-75
2023/07/06 06:08:44;;;;;;;2.60;2.08;;;32.90;49.70;;;;;;873588;161;27572;-75
2023/07/06 06:11:10;;;;;;;2.35;1.60;;;33.50;49.10;;;;;;874214;161;26409;-75
2023/07/06 06:13:37;;;;;;;1.70;1.55;;;33.90;48.30;;;;;;873158;161;26332;-74
2023/07/06 06:16:03;;;;;;;2.15;1.50;;;34.50;47.80;;;;;;871802;161;26362;-74
2023/07/06 06:18:30;;;;;;;2.55;1.90;;;35.00;47.00;;;;;;872326;164;26350;-74
2023/07/06 06:20:58;;;;;;;1.72;1.62;;;35.50;46.20;;;;;;872234;161;26315;-74
2023/07/06 06:23:23;;;;;;;2.10;1.55;;;36.00;45.30;;;;;;872138;161;26471;-74
2023/07/06 06:25:50;;;;;;;1.95;1.65;;;36.40;44.70;;;;;;872459;161;26363;-74
2023/07/06 06:28:16;;;;;;;1.72;1.40;;;36.70;44.30;;;;;;872332;161;26362;-74
2023/07/06 06:30:43;;;;;;;3.33;1.57;;;37.20;43.70;;;;;;871912;162;26341;-71
2023/07/06 06:33:10;;;;;;;2.65;1.70;;;37.60;43.10;;;;;;874537;162;26254;-77
2023/07/06 06:35:36;;;;;;;1.87;1.50;;;38.00;42.50;;;;;;874559;161;26339;-76
2023/07/06 06:38:05;;;;;;;3.55;1.52;;;38.50;41.80;;;;;;874409;162;26361;-77
2023/07/06 06:40:29;;;;;;;1.60;1.50;;;38.90;41.00;;;;;;873829;160;26379;-77
2023/07/06 06:42:57;;;;;;;3.42;1.85;;;39.30;40.10;;;;;;873990;160;26315;-77
2023/07/06 06:45:22;;;;;;;1.40;1.30;;;39.70;39.60;;;;;;874835;160;26322;-77
2023/07/06 06:47:50;;;;;;;1.52;1.40;;;39.90;38.40;;;;;;874380;162;26378;-77
2023/07/06 06:50:19;;;;;;;1.67;1.27;;;40.30;38.70;;;;;;874602;163;26357;-77
2023/07/06 06:52:42;;;;;;;1.50;1.40;;;40.50;38.20;;;;;;874435;160;26326;-77
2023/07/06 06:55:09;;;;;;;3.65;1.55;;;40.90;37.60;;;;;;873851;161;26313;-77
2023/07/06 06:57:35;;;;;;;1.47;1.27;;;41.20;37.00;;;;;;874069;161;26354;-77
2023/07/06 07:00:06;;;;;;;2.40;1.50;;;41.50;36.40;;;;;;874348;160;26480;-77
2023/07/06 07:02:29;;;;;;;3.25;1.45;;;41.80;36.00;;;;;;874660;160;26346;-78
2023/07/06 07:04:59;;;;;;;2.15;1.37;;;42.10;35.40;;;;;;874307;160;26419;-77
2023/07/06 07:07:22;;;;;;;2.02;1.50;;;42.30;34.90;;;;;;874069;162;26357;-77
2023/07/06 07:09:50;;;;;;;2.05;1.37;;;42.50;34.50;;;;;;873842;163;26499;-74
2023/07/06 07:12:15;;;;;;;1.70;1.32;;;42.60;34.00;;;;;;872913;163;26337;-75
2023/07/06 07:14:43;;;;;;;1.77;1.50;;;42.80;33.70;;;;;;873154;161;26401;-75
2023/07/06 07:17:10;;;;;;;2.02;1.12;;;43.00;33.20;;;;;;872924;163;26727;-75
2023/07/06 07:19:35;;;;;;;1.95;1.20;;;43.10;32.40;;;;;;872515;161;26734;-75
2023/07/06 07:22:01;;;;;;;1.62;1.15;;;43.20;32.10;;;;;;874145;161;26428;-75
2023/07/06 07:24:29;;;;;;;1.27;1.15;;;43.30;32.10;;;;;;873174;161;26506;-75
2023/07/06 07:26:54;;;;;;;1.85;1.20;;;43.40;32.00;;;;;;873372;161;26291;-75
2023/07/06 07:29:23;;;;;;;2.15;1.10;;;43.60;31.80;;;;;;873279;163;26384;-75
2023/07/06 07:31:49;;;;;;;1.92;1.12;;;43.80;31.30;;;;;;872403;161;26366;-75
2023/07/06 07:34:14;;;;;;;1.22;1.12;;;43.90;30.80;;;;;;872705;161;26384;-74
2023/07/06 07:36:41;;;;;;;2.05;0.95;;;44.20;30.60;;;;;;872852;161;26327;-75
2023/07/06 07:39:08;;;;;;;1.07;0.90;;;44.50;30.00;;;;;;873735;161;26413;-75
2023/07/06 07:41:34;;;;;;;3.52;1.40;;;44.80;29.80;;;;;;872828;161;26710;-75
2023/07/06 07:44:01;;;;;;;1.90;1.10;;;44.90;29.30;;;;;;873041;161;26468;-75
2023/07/06 07:46:29;;;;;;;1.57;1.10;;;45.00;29.10;;;;;;872716;161;26350;-75
2023/07/06 07:48:54;;;;;;;3.40;1.20;;;45.20;29.00;;;;;;872981;161;26396;-75
2023/07/06 07:51:21;;;;;;;1.12;1.00;;;45.30;28.80;;;;;;873021;161;26349;-75
2023/07/06 07:53:47;;;;;;;1.27;1.10;;;45.40;28.50;;;;;;873111;161;26366;-75
2023/07/06 07:56:15;;;;;;;1.75;1.17;;;45.60;28.70;;;;;;872609;161;26298;-75
2023/07/06 07:58:40;;;;;;;1.82;1.00;;;45.80;28.00;;;;;;873187;163;26343;-75
2023/07/06 08:01:07;;;;;;;1.17;0.88;;;45.90;28.20;;;;;;872957;163;26424;-75
2023/07/06 08:03:35;;;;;;;0.88;0.88;;;46.10;27.60;;;;;;872804;161;26358;-75
2023/07/06 08:06:02;;;;;;;1.32;1.17;;;46.10;27.40;;;;;;872996;161;26342;-75
2023/07/06 08:08:27;;;;;;;1.90;1.10;;;46.20;27.20;;;;;;872664;163;26294;-75
2023/07/06 08:10:56;;;;;;;1.65;1.00;;;46.30;27.00;;;;;;873528;160;26446;-75
2023/07/06 08:13:22;;;;;;;1.67;1.10;;;46.50;26.60;;;;;;873877;160;26548;-75
2023/07/06 08:15:50;;;;;;;3.50;1.32;;;46.40;26.40;;;;;;873495;160;26347;-75
2023/07/06 08:18:16;;;;;;;1.35;0.85;;;46.20;26.00;;;;;;871777;161;26461;-75
2023/07/06 08:20:46;;;;;;;0.85;0.80;;;46.00;26.10;;;;;;872283;161;26262;-75
2023/07/06 08:23:11;;;;;;;1.67;1.22;;;45.80;26.00;;;;;;873442;160;26467;-75
2023/07/06 08:25:38;;;;;;;3.50;1.02;;;45.60;26.20;;;;;;873992;160;26342;-75
2023/07/06 08:28:05;;;;;;;2.12;1.40;;;45.50;26.20;;;;;;874395;161;26334;-75
2023/07/06 08:30:32;;;;;;;1.65;1.20;;;45.40;26.20;;;;;;874472;162;26416;-75
2023/07/06 08:32:58;;;;;;;1.80;1.30;;;45.50;26.20;;;;;;874199;160;26358;-74
2023/07/06 08:35:24;;;;;;;1.67;1.10;;;45.60;26.10;;;;;;873693;160;26405;-74
2023/07/06 08:37:51;;;;;;;1.52;1.20;;;45.60;25.70;;;;;;873968;160;26410;-74
2023/07/06 08:40:17;;;;;;;1.30;1.05;;;45.60;25.80;;;;;;874116;160;26452;-74
2023/07/06 08:42:44;;;;;;;1.05;0.98;;;45.50;25.70;;;;;;874083;160;26330;-74
2023/07/06 08:45:11;;;;;;;1.15;1.05;;;45.60;25.70;;;;;;873932;160;26769;-74
2023/07/06 08:47:39;;;;;;;1.40;1.00;;;45.60;25.60;;;;;;873204;160;26736;-74
2023/07/06 08:50:05;;;;;;;2.62;0.90;;;45.70;25.50;;;;;;872924;160;26315;-74
2023/07/06 08:52:31;;;;;;;1.72;1.10;;;45.80;25.50;;;;;;872405;162;26412;-74
2023/07/06 08:54:57;;;;;;;1.20;1.10;;;46.00;25.50;;;;;;873137;160;26365;-74
2023/07/06 08:57:24;;;;;;;2.60;1.30;;;46.30;25.20;;;;;;871960;160;26350;-74
2023/07/06 08:59:51;;;;;;;1.10;1.00;;;46.50;25.00;;;;;;871984;160;26330;-74
2023/07/06 09:02:23;;;;;;;0.98;0.93;;;46.70;24.70;;;;;;872443;162;26444;-74
2023/07/06 09:04:50;;;;;;;2.35;1.37;;;46.80;24.60;;;;;;873578;160;26461;-74
2023/07/06 09:07:16;;;;;;;1.00;0.78;;;47.00;24.80;;;;;;872762;162;26450;-74
2023/07/06 09:09:42;;;;;;;3.27;1.20;;;47.00;24.30;;;;;;873067;162;26318;-74
2023/07/06 09:12:13;;;;;;;1.75;1.20;;;47.00;23.80;;;;;;871730;162;26440;-74
2023/07/06 09:14:38;;;;;;;2.85;1.00;;;46.80;23.60;;;;;;870683;161;26450;-74
2023/07/06 09:17:06;;;;;;;1.22;1.00;;;46.60;23.20;;;;;;871996;163;26350;-74
2023/07/06 09:19:32;;;;;;;3.35;1.17;;;46.40;23.80;;;;;;871798;161;26883;-74
2023/07/06 09:22:00;;;;;;;1.70;1.00;;;46.30;23.80;;;;;;871617;163;26397;-74
2023/07/06 09:24:27;;;;;;;1.15;1.05;;;46.30;23.60;;;;;;871927;161;26463;-74
2023/07/06 09:26:53;;;;;;;1.15;1.00;;;46.30;23.60;;;;;;872656;161;26436;-74
2023/07/06 09:29:21;;;;;;;1.10;1.00;;;46.20;23.50;;;;;;872189;161;26327;-74
2023/07/06 09:31:47;;;;;;;1.45;1.30;;;46.10;23.40;;;;;;871998;162;26377;-74
2023/07/06 09:34:23;;;;;;;1.52;1.10;;;46.00;23.00;;;;;;871851;161;26536;-74
2023/07/06 09:36:50;;;;;;;1.75;1.20;;;45.60;23.00;;;;;;872604;163;26372;-74
2023/07/06 09:39:16;;;;;;;1.77;0.80;;;45.20;23.10;;;;;;872792;163;26449;-74
2023/07/06 09:41:46;;;;;;;1.40;1.10;;;45.00;23.30;;;;;;871933;161;26341;-74
2023/07/06 09:44:24;;;;;;;1.55;1.20;;;44.80;23.50;;;;;;871599;161;26322;-74
2023/07/06 09:46:51;;;;;;;1.67;1.12;;;44.70;23.80;;;;;;872516;161;26424;-74
2023/07/06 09:49:17;;;;;;;1.72;0.90;;;44.80;23.80;;;;;;872581;162;26266;-74
2023/07/06 09:51:50;;;;;;;1.45;1.27;;;44.70;23.40;;;;;;872514;163;26318;-74
2023/07/06 09:54:19;;;;;;;2.37;1.17;;;44.50;23.60;;;;;;871286;161;26436;-74
2023/07/06 09:56:43;;;;;;;1.10;1.00;;;44.20;23.20;;;;;;872593;161;26362;-74
2023/07/06 09:59:11;;;;;;;1.52;1.20;;;43.80;23.10;;;;;;873497;163;26431;-74
2023/07/06 10:02:10;;;;;;;1.20;1.10;;;43.40;23.20;;;;;;873401;163;26346;-74
2023/07/06 10:04:40;;;;;;;4.47;1.22;;;42.80;23.40;;;;;;872208;161;26345;-74
2023/07/06 10:07:12;;;;;;;1.10;1.00;;;42.30;23.40;;;;;;872427;161;26408;-74
2023/07/06 10:09:38;;;;;;;1.30;1.20;;;41.90;23.70;;;;;;873199;162;26349;-74
2023/07/06 10:12:08;;;;;;;2.25;1.30;;;41.50;24.00;;;;;;873840;163;26508;-74
2023/07/06 10:14:38;;;;;;;1.62;1.52;;;41.30;24.30;;;;;;872557;161;26427;-74
2023/07/06 10:17:18;;;;;;;1.92;1.10;;;41.00;24.10;;;;;;873263;163;26325;-74
2023/07/06 10:19:49;;;;;;;1.77;1.30;;;40.80;24.10;;;;;;873429;161;26458;-74
2023/07/06 10:22:36;;;;;;;1.20;1.17;;;40.50;24.00;;;;;;873455;163;26340;-74
2023/07/06 10:25:18;;;;;;;2.55;1.25;;;40.10;24.00;;;;;;873228;161;26358;-74
2023/07/06 10:27:44;;;;;;;1.30;1.22;;;39.70;24.10;;;;;;854570;161;26328;-74
2023/07/06 10:30:11;;;;;;;1.50;1.40;;;39.20;24.00;;;;;;872128;161;27424;-74
2023/07/06 10:32:37;;;;;;;1.57;1.35;;;38.80;24.20;;;;;;870386;161;26440;-74
2023/07/06 10:35:23;;;;;;;1.65;1.20;;;38.30;24.40;;;;;;872232;161;27509;-75
2023/07/06 10:37:49;;;;;;;2.08;1.42;;;38.00;24.50;;;;;;872154;161;27429;-75
2023/07/06 10:40:21;;;;;;;1.05;1.00;;;37.60;24.70;;;;;;872144;162;27415;-75
2023/07/06 10:42:49;;;;;;;1.75;1.20;;;37.40;25.30;;;;;;873252;161;27457;-75
2023/07/06 10:45:44;;;;;;;1.15;0.88;;;37.00;25.00;;;;;;872368;161;27421;-75
2023/07/06 10:48:16;;;;;;;1.62;1.47;;;36.80;25.10;;;;;;873531;161;27517;-75
2023/07/06 10:50:43;;;;;;;1.27;1.25;;;36.50;25.20;;;;;;870490;163;27452;-75
2023/07/06 10:53:34;;;;;;;1.25;1.10;;;36.20;25.30;;;;;;871824;161;27428;-75
2023/07/06 10:56:03;;;;;;;1.45;1.35;;;36.00;25.50;;;;;;873505;162;27428;-75
2023/07/06 10:58:36;;;;;;;1.40;1.30;;;35.70;25.90;;;;;;873462;161;27738;-75
2023/07/06 11:01:05;;;;;;;2.22;1.15;;;35.50;26.00;;;;;;873308;163;27597;-75
2023/07/06 11:03:32;;;;;;;1.77;1.67;;;35.30;26.00;;;;;;872767;161;27534;-75
2023/07/06 11:06:05;;;;;;;1.40;1.30;;;35.20;26.00;;;;;;873342;160;27484;-75
2023/07/06 11:09:05;;;;;;;3.10;1.40;;;35.00;26.00;;;;;;872123;161;27539;-75
2023/07/06 11:11:34;;;;;;;1.32;1.20;;;34.80;26.00;;;;;;872270;161;27938;-78
2023/07/06 11:14:19;;;;;;;1.07;1.02;;;34.60;26.60;;;;;;872872;160;27504;-78
2023/07/06 11:16:48;;;;;;;1.30;1.20;;;34.50;26.10;;;;;;865214;163;27425;-77
2023/07/06 11:19:14;;;;;;;1.40;1.27;;;34.30;26.20;;;;;;873669;162;27353;-77
2023/07/06 11:21:44;;;;;;;1.70;1.32;;;34.00;26.40;;;;;;873902;161;27572;-77
2023/07/06 11:24:11;;;;;;;1.87;1.20;;;33.80;26.50;;;;;;873317;160;27458;-77
2023/07/06 11:26:46;;;;;;;1.02;0.98;;;33.50;26.40;;;;;;873833;163;27554;-77
2023/07/06 11:29:12;;;;;;;2.37;1.32;;;33.20;26.40;;;;;;874412;160;27990;-77
2023/07/06 11:32:00;;;;;;;1.67;1.30;;;32.90;26.70;;;;;;873535;161;27443;-77
2023/07/06 11:34:48;;;;;;;1.27;1.27;;;32.70;27.00;;;;;;874064;160;26401;-77
2023/07/06 11:37:41;;;;;;;1.40;1.30;;;32.50;26.90;;;;;;873967;162;27550;-77
2023/07/06 11:40:23;;;;;;;1.98;1.40;;;32.40;27.00;;;;;;874676;163;27424;-77
2023/07/06 11:43:05;;;;;;;1.40;1.30;;;32.20;27.10;;;;;;873863;160;27396;-77
2023/07/06 11:45:39;;;;;;;2.10;1.40;;;32.00;27.20;;;;;;873095;160;27458;-77
2023/07/06 11:48:22;;;;;;;1.42;1.32;;;31.90;27.40;;;;;;857770;163;27520;-77
2023/07/06 11:50:49;;;;;;;1.25;1.15;;;31.80;27.50;;;;;;873169;163;27843;-77
2023/07/06 11:53:29;;;;;;;1.65;1.55;;;31.70;27.60;;;;;;873993;161;27427;-77
2023/07/06 11:56:04;;;;;;;1.47;1.37;;;31.60;27.60;;;;;;872314;161;27653;-77
2023/07/06 11:59:07;;;;;;;1.70;1.60;;;31.50;27.80;;;;;;873746;163;27419;-77
2023/07/06 12:00:56;;;;;;;1.40;1.30;;;31.50;28.00;;;;;;866725;160;27420;-77
2023/07/06 12:03:19;;;;;;;2.12;1.30;;;31.40;28.00;;;;;;873169;160;27464;-77
2023/07/06 12:05:47;;;;;;;2.80;1.60;;;31.40;28.00;;;;;;873187;160;27545;-77
2023/07/06 12:08:19;;;;;;;1.42;1.32;;;31.30;28.10;;;;;;871705;161;27414;-77
2023/07/06 12:10:45;;;;;;;2.05;1.75;;;31.30;28.00;;;;;;874085;162;27428;-77
2023/07/06 12:13:22;;;;;;;1.60;1.50;;;31.20;28.00;;;;;;874262;160;27448;-76
2023/07/06 12:15:48;;;;;;;1.42;1.32;;;31.10;28.20;;;;;;872559;163;27401;-77
2023/07/06 12:18:15;;;;;;;2.52;1.45;;;31.00;28.30;;;;;;873829;161;27396;-77
2023/07/06 12:20:42;;;;;;;2.27;1.50;;;31.00;28.40;;;;;;873048;163;27428;-77
2023/07/06 12:23:11;;;;;;;1.67;1.30;;;30.90;28.40;;;;;;872849;163;27440;-77
2023/07/06 12:25:38;;;;;;;2.02;1.60;;;30.80;28.30;;;;;;871353;161;27511;-77
2023/07/06 12:28:04;;;;;;;1.27;1.20;;;30.80;28.40;;;;;;872524;161;27510;-77
2023/07/06 12:30:33;;;;;;;3.08;1.37;;;30.80;28.70;;;;;;873120;161;27416;-77
2023/07/06 12:32:58;;;;;;;2.35;1.57;;;30.80;28.80;;;;;;872813;161;27452;-77
2023/07/06 12:35:24;;;;;;;1.67;1.45;;;30.80;28.80;;;;;;872757;161;27561;-72
2023/07/06 12:37:50;;;;;;;1.57;1.40;;;30.90;28.90;;;;;;872653;163;27416;-73
2023/07/06 12:40:20;;;;;;;1.70;1.22;;;30.90;29.30;;;;;;872435;161;27344;-73
2023/07/06 12:42:46;;;;;;;1.90;1.40;;;31.00;28.70;;;;;;864922;162;27444;-73
2023/07/06 12:45:14;;;;;;;1.50;1.12;;;31.00;28.50;;;;;;872931;162;27452;-73
2023/07/06 12:47:40;;;;;;;1.50;1.40;;;30.90;28.60;;;;;;872757;161;27424;-73
2023/07/06 12:50:16;;;;;;;1.52;1.42;;;30.80;28.60;;;;;;872247;161;27452;-73
2023/07/06 12:52:39;;;;;;;1.20;1.20;;;30.80;28.80;;;;;;868832;161;27471;-73
2023/07/06 12:55:05;;;;;;;3.10;1.40;;;30.80;28.90;;;;;;873771;161;27394;-73